createdAt,value
2018-12-31T00:00:03.607Z,11.29
2018-12-31T00:01:03.739Z,11.29
2018-12-31T00:02:02.926Z,11.6
2018-12-31T00:03:02.932Z,11.74
2018-12-31T00:04:03.502Z,11.58
2018-12-31T00:05:03.188Z,11.58
2018-12-31T00:06:03.783Z,11.65
2018-12-31T00:07:02.946Z,11.65
2018-12-31T00:08:03.366Z,10.92
2018-12-31T00:09:03.162Z,10.92
2018-12-31T00:10:02.961Z,11.38
2018-12-31T00:11:02.994Z,11.38
2018-12-31T00:12:03.207Z,10.03
2018-12-31T00:13:03.014Z,10.99
2018-12-31T00:14:03.016Z,11.51
2018-12-31T00:15:04.156Z,11.51
2018-12-31T00:17:03.860Z,10.91
2018-12-31T00:18:03.207Z,11.96
2018-12-31T00:19:03.563Z,11.96
2018-12-31T00:20:01.987Z,11.76
2018-12-31T00:21:03.562Z,11.13
2018-12-31T00:22:02.872Z,11.78
2018-12-31T00:23:04.057Z,11.78
2018-12-31T00:24:03.450Z,11.49
2018-12-31T00:25:03.376Z,11.49
2018-12-31T00:26:03.567Z,10.64
2018-12-31T00:27:03.026Z,10.64
2018-12-31T00:28:03.069Z,10.85
2018-12-31T00:29:03.673Z,11.38
2018-12-31T00:30:03.662Z,11.38
2018-12-31T00:31:03.386Z,11.15
2018-12-31T00:32:03.133Z,10.58
2018-12-31T00:33:03.932Z,10.58
2018-12-31T00:34:03.490Z,10.45
2018-12-31T00:35:03.276Z,10.71
2018-12-31T00:36:03.229Z,11.04
2018-12-31T00:37:04.565Z,11.04
2018-12-31T00:38:02.867Z,9.86
2018-12-31T00:39:03.741Z,10.89
2018-12-31T00:40:03.596Z,10.11
2018-12-31T00:41:03.179Z,10.92
2018-12-31T00:42:03.131Z,11.21
2018-12-31T00:43:03.944Z,11.21
2018-12-31T00:44:03.027Z,11.5
2018-12-31T00:45:03.320Z,10.87
2018-12-31T00:46:03.604Z,11.91
2018-12-31T00:47:03.067Z,11.24
2018-12-31T00:48:03.817Z,10.3
2018-12-31T00:49:03.579Z,10.99
2018-12-31T00:50:03.656Z,11.19
2018-12-31T00:51:03.391Z,10.66
2018-12-31T00:52:03.110Z,10.64
2018-12-31T00:53:03.725Z,10.64
2018-12-31T00:54:03.799Z,10.23
2018-12-31T00:55:02.990Z,10.73
2018-12-31T00:56:01.968Z,11.56
2018-12-31T00:57:03.570Z,11.56
2018-12-31T00:58:02.832Z,10.76
2018-12-31T00:59:03.743Z,10.76
2018-12-31T01:00:03.556Z,10.54
2018-12-31T01:01:03.198Z,11.26
2018-12-31T01:02:03.587Z,10.86
2018-12-31T01:03:03.060Z,10.86
2018-12-31T01:04:02.816Z,11.55
2018-12-31T01:06:03.149Z,11.05
2018-12-31T01:07:02.966Z,11.05
2018-12-31T01:08:02.545Z,10.81
2018-12-31T01:09:03.144Z,10.81
2018-12-31T01:10:03.440Z,10.81
2018-12-31T01:11:03.287Z,10.69
2018-12-31T01:12:03.338Z,11.52
2018-12-31T01:13:03.195Z,11.44
2018-12-31T01:14:03.236Z,9.64
2018-12-31T01:15:03.287Z,9.64
2018-12-31T01:16:03.240Z,10.72
2018-12-31T01:17:02.904Z,10.72
2018-12-31T01:18:03.619Z,11.69
2018-12-31T01:19:03.457Z,11.04
2018-12-31T01:20:02.980Z,11.34
2018-12-31T01:21:03.021Z,11.34
2018-12-31T01:22:03.842Z,10.18
2018-12-31T01:23:03.222Z,10.18
2018-12-31T01:24:03.248Z,11.45
2018-12-31T01:25:03.707Z,11.42
2018-12-31T01:26:02.898Z,10.96
2018-12-31T01:27:03.601Z,12.36
2018-12-31T01:28:03.111Z,10.91
2018-12-31T01:29:02.760Z,10.91
2018-12-31T01:30:02.234Z,11.98
2018-12-31T01:31:03.243Z,11.98
2018-12-31T01:32:03.310Z,11.29
2018-12-31T01:33:03.636Z,11.75
2018-12-31T01:34:02.949Z,11.02
2018-12-31T01:35:03.514Z,11.02
2018-12-31T01:36:02.735Z,11.71
2018-12-31T01:37:03.001Z,11.02
2018-12-31T01:38:02.331Z,11.9
2018-12-31T01:39:02.896Z,11.9
2018-12-31T01:40:03.603Z,11.48
2018-12-31T01:41:03.750Z,11.48
2018-12-31T01:42:03.833Z,10.64
2018-12-31T01:43:03.205Z,11.71
2018-12-31T01:44:03.594Z,11.54
2018-12-31T01:45:03.196Z,11.54
2018-12-31T01:46:03.240Z,10.53
2018-12-31T01:47:03.048Z,11.21
2018-12-31T01:48:02.829Z,11.04
2018-12-31T01:49:02.638Z,11.04
2018-12-31T01:50:03.270Z,11.52
2018-12-31T01:51:02.747Z,11.52
2018-12-31T01:52:02.281Z,11.11
2018-12-31T01:53:03.239Z,11.15
2018-12-31T01:54:03.109Z,11.8
2018-12-31T01:55:03.759Z,11.56
2018-12-31T01:56:03.070Z,10.28
2018-12-31T01:57:02.033Z,11.37
2018-12-31T01:58:03.662Z,11.22
2018-12-31T01:59:03.410Z,11.22
2018-12-31T02:00:03.514Z,11.24
2018-12-31T02:01:07.100Z,11.24
2018-12-31T02:02:03.178Z,10.82
2018-12-31T02:03:02.964Z,10.82
2018-12-31T02:04:03.094Z,10.58
2018-12-31T02:05:02.837Z,10.58
2018-12-31T02:06:03.361Z,11.15
2018-12-31T02:07:02.914Z,10.15
2018-12-31T02:08:02.720Z,9.92
2018-12-31T02:09:04.487Z,9.58
2018-12-31T02:10:03.278Z,10.95
2018-12-31T02:11:03.653Z,10.79
2018-12-31T02:13:03.253Z,10.65
2018-12-31T02:14:03.163Z,10.23
2018-12-31T02:15:02.970Z,10.04
2018-12-31T02:16:03.788Z,10.71
2018-12-31T02:17:03.649Z,11.69
2018-12-31T02:18:03.785Z,10.09
2018-12-31T02:19:02.838Z,10.39
2018-12-31T02:20:02.585Z,11.04
2018-12-31T02:21:03.342Z,10.24
2018-12-31T02:22:02.860Z,10.01
2018-12-31T02:23:03.958Z,9.93
2018-12-31T02:24:03.215Z,9.82
2018-12-31T02:25:02.804Z,9.82
2018-12-31T02:26:03.286Z,10.59
2018-12-31T02:27:03.411Z,10.59
2018-12-31T02:28:03.350Z,10.3
2018-12-31T02:29:02.950Z,10.74
2018-12-31T02:30:04.157Z,10.74
2018-12-31T02:31:02.941Z,9.12
2018-12-31T02:32:03.120Z,9.12
2018-12-31T02:33:02.763Z,10.18
2018-12-31T02:34:02.651Z,10.27
2018-12-31T02:35:02.149Z,10.54
2018-12-31T02:36:03.752Z,10.8
2018-12-31T02:37:02.921Z,10.8
2018-12-31T02:38:02.695Z,9.91
2018-12-31T02:39:03.356Z,9.94
2018-12-31T02:40:03.250Z,9.54
2018-12-31T02:41:03.791Z,9.54
2018-12-31T02:42:02.869Z,9.48
2018-12-31T02:43:02.614Z,9.48
2018-12-31T02:44:03.119Z,10.75
2018-12-31T02:45:03.181Z,9.86
2018-12-31T02:46:03.263Z,9.55
2018-12-31T02:47:02.791Z,9.76
2018-12-31T02:48:03.596Z,9.76
2018-12-31T02:49:03.857Z,9.24
2018-12-31T02:50:03.541Z,9.24
2018-12-31T02:51:03.601Z,9.12
2018-12-31T02:52:03.402Z,10.06
2018-12-31T02:53:03.892Z,9.79
2018-12-31T02:55:03.245Z,8.63
2018-12-31T02:56:03.012Z,9.5
2018-12-31T02:57:04.025Z,9.74
2018-12-31T02:58:03.940Z,9.74
2018-12-31T02:59:03.766Z,9.89
2018-12-31T03:00:03.924Z,9.22
2018-12-31T03:01:03.398Z,9.22
2018-12-31T03:02:03.105Z,10.17
2018-12-31T03:03:03.646Z,9.25
2018-12-31T03:04:02.866Z,9.9
2018-12-31T03:05:03.698Z,9.9
2018-12-31T03:06:03.169Z,10.38
2018-12-31T03:07:03.747Z,10.61
2018-12-31T03:08:03.674Z,9.91
2018-12-31T03:09:03.768Z,9.91
2018-12-31T03:10:03.655Z,10.04
2018-12-31T03:11:03.635Z,10.29
2018-12-31T03:12:03.476Z,10.29
2018-12-31T03:13:03.233Z,10.4
2018-12-31T03:14:03.238Z,10.4
2018-12-31T03:15:03.537Z,11.22
2018-12-31T03:16:03.407Z,10.11
2018-12-31T03:17:03.418Z,9.68
2018-12-31T03:18:02.254Z,10.84
2018-12-31T03:19:03.708Z,9.22
2018-12-31T03:20:03.218Z,9.22
2018-12-31T03:21:02.337Z,10.17
2018-12-31T03:22:03.847Z,10.17
2018-12-31T03:23:03.083Z,10.59
2018-12-31T03:24:03.554Z,10.61
2018-12-31T03:25:03.412Z,10.68
2018-12-31T03:26:02.660Z,10.68
2018-12-31T03:27:02.868Z,10.31
2018-12-31T03:28:03.308Z,10.81
2018-12-31T03:29:03.535Z,10.19
2018-12-31T03:30:03.838Z,10.19
2018-12-31T03:31:03.131Z,12.39
2018-12-31T03:32:03.630Z,12.39
2018-12-31T03:33:03.163Z,11.9
2018-12-31T03:34:03.416Z,11.46
2018-12-31T03:35:02.639Z,11.44
2018-12-31T03:36:03.736Z,11.44
2018-12-31T03:37:04.262Z,10.58
2018-12-31T03:38:03.589Z,10.11
2018-12-31T03:39:03.604Z,10.57
2018-12-31T03:40:02.965Z,10.57
2018-12-31T03:42:02.988Z,11.86
2018-12-31T03:43:03.396Z,10.36
2018-12-31T03:44:02.991Z,10.36
2018-12-31T03:46:03.425Z,11.05
2018-12-31T03:47:02.991Z,10.96
2018-12-31T03:48:03.595Z,10.75
2018-12-31T03:49:03.698Z,10.24
2018-12-31T03:50:03.697Z,10.24
2018-12-31T03:51:03.402Z,9.5
2018-12-31T03:52:04.879Z,9.5
2018-12-31T03:53:03.466Z,11.13
2018-12-31T03:54:03.436Z,11.19
2018-12-31T03:55:03.656Z,10.05
2018-12-31T03:56:03.632Z,11.45
2018-12-31T03:57:03.457Z,9.83
2018-12-31T03:58:03.841Z,10.4
2018-12-31T03:59:03.250Z,10.09
2018-12-31T04:00:03.009Z,10.76
2018-12-31T04:01:03.050Z,10.76
2018-12-31T04:02:03.563Z,10.06
2018-12-31T04:03:03.528Z,10.06
2018-12-31T04:04:03.012Z,10.71
2018-12-31T04:05:02.978Z,10.16
2018-12-31T04:06:02.764Z,9.93
2018-12-31T04:07:03.163Z,9.78
2018-12-31T04:09:02.741Z,10.04
2018-12-31T04:10:02.966Z,10.04
2018-12-31T04:11:03.142Z,10.04
2018-12-31T04:12:02.794Z,10.61
2018-12-31T04:13:03.401Z,10.61
2018-12-31T04:14:02.887Z,10.61
2018-12-31T04:15:03.854Z,9.54
2018-12-31T04:16:03.507Z,10.37
2018-12-31T04:17:03.206Z,10.37
2018-12-31T04:18:03.070Z,10.11
2018-12-31T04:19:03.720Z,10.11
2018-12-31T04:20:04.722Z,9.41
2018-12-31T04:21:03.128Z,10.14
2018-12-31T04:22:04.163Z,10.51
2018-12-31T04:23:03.305Z,10.51
2018-12-31T04:24:02.944Z,9.72
2018-12-31T04:25:02.964Z,9.89
2018-12-31T04:26:03.476Z,11.3
2018-12-31T04:27:03.292Z,9.62
2018-12-31T04:28:03.086Z,10.09
2018-12-31T04:29:02.913Z,10.09
2018-12-31T04:30:03.166Z,9.99
2018-12-31T04:31:03.418Z,10.71
2018-12-31T04:32:02.291Z,10.36
2018-12-31T04:33:03.017Z,10.36
2018-12-31T04:34:03.495Z,9.61
2018-12-31T04:35:02.619Z,9.89
2018-12-31T04:36:03.130Z,10.66
2018-12-31T04:37:03.393Z,9.86
2018-12-31T04:38:03.288Z,9.86
2018-12-31T04:39:03.973Z,9.7
2018-12-31T04:40:03.891Z,9.91
2018-12-31T04:41:02.862Z,10.74
2018-12-31T04:42:03.766Z,10.74
2018-12-31T04:43:03.235Z,10.33
2018-12-31T04:44:02.857Z,10.3
2018-12-31T04:45:03.271Z,9.91
2018-12-31T04:46:03.066Z,9.45
2018-12-31T04:47:03.756Z,9.45
2018-12-31T04:48:03.240Z,10.61
2018-12-31T04:49:03.040Z,10.61
2018-12-31T04:50:03.396Z,9.93
2018-12-31T04:51:03.025Z,9.93
2018-12-31T04:52:02.841Z,9.67
2018-12-31T04:53:03.162Z,10.19
2018-12-31T04:54:03.251Z,10.19
2018-12-31T04:55:03.355Z,9.76
2018-12-31T04:56:03.009Z,10.26
2018-12-31T04:57:03.063Z,10.51
2018-12-31T04:58:03.466Z,10.51
2018-12-31T04:59:04.114Z,10.61
2018-12-31T05:00:03.484Z,10.61
2018-12-31T05:01:03.361Z,9.87
2018-12-31T05:02:03.131Z,10.12
2018-12-31T05:04:03.304Z,10.58
2018-12-31T05:05:02.411Z,10.65
2018-12-31T05:06:03.721Z,9.55
2018-12-31T05:07:02.492Z,10.19
2018-12-31T05:08:03.391Z,10.19
2018-12-31T05:09:03.777Z,11.56
2018-12-31T05:10:03.411Z,11.56
2018-12-31T05:11:03.675Z,9.71
2018-12-31T05:12:02.799Z,10.18
2018-12-31T05:13:03.607Z,10.51
2018-12-31T05:14:03.064Z,10.51
2018-12-31T05:15:03.532Z,10.37
2018-12-31T05:16:03.049Z,10.37
2018-12-31T05:17:03.590Z,9.96
2018-12-31T05:18:03.161Z,10.75
2018-12-31T05:19:03.095Z,11.32
2018-12-31T05:20:03.391Z,11.32
2018-12-31T05:21:03.272Z,11.01
2018-12-31T05:22:02.765Z,9.71
2018-12-31T05:24:02.954Z,10.95
2018-12-31T05:25:02.893Z,11.31
2018-12-31T05:26:03.249Z,11.31
2018-12-31T05:28:03.831Z,10.74
2018-12-31T05:29:03.161Z,10.75
2018-12-31T05:30:03.345Z,10.02
2018-12-31T05:31:03.867Z,11.29
2018-12-31T05:32:03.567Z,10.25
2018-12-31T05:33:03.594Z,11.54
2018-12-31T05:34:03.423Z,10.55
2018-12-31T05:35:03.644Z,10.94
2018-12-31T05:36:03.552Z,10.94
2018-12-31T05:37:03.258Z,11.29
2018-12-31T05:38:03.312Z,11.29
2018-12-31T05:39:04.158Z,10.94
2018-12-31T05:40:03.665Z,10.94
2018-12-31T05:41:02.992Z,10.91
2018-12-31T05:42:02.902Z,11.33
2018-12-31T05:43:03.719Z,10.59
2018-12-31T05:44:02.668Z,9.99
2018-12-31T05:45:03.152Z,10.08
2018-12-31T05:46:03.093Z,11.44
2018-12-31T05:47:02.968Z,10.62
2018-12-31T05:48:03.666Z,11.71
2018-12-31T05:49:03.255Z,10.62
2018-12-31T05:50:03.702Z,10.62
2018-12-31T05:51:01.959Z,10.96
2018-12-31T05:52:02.806Z,10.96
2018-12-31T05:53:03.017Z,11.06
2018-12-31T05:54:03.114Z,11.34
2018-12-31T05:55:03.623Z,11.34
2018-12-31T05:56:02.952Z,11.25
2018-12-31T05:57:01.957Z,11.13
2018-12-31T05:58:03.331Z,11.01
2018-12-31T05:59:03.737Z,11.01
2018-12-31T06:00:03.514Z,11.42
2018-12-31T06:01:03.692Z,11.25
2018-12-31T06:02:03.463Z,10.63
2018-12-31T06:03:03.393Z,11.56
2018-12-31T06:04:03.569Z,11.05
2018-12-31T06:05:02.994Z,11.26
2018-12-31T06:06:03.691Z,11.26
2018-12-31T06:07:03.678Z,10.93
2018-12-31T06:08:03.145Z,10.93
2018-12-31T06:09:03.470Z,11.66
2018-12-31T06:10:04.087Z,11.04
2018-12-31T06:11:03.421Z,10.54
2018-12-31T06:12:03.121Z,12.35
2018-12-31T06:13:02.841Z,12.35
2018-12-31T06:15:01.611Z,10.65
2018-12-31T06:16:03.609Z,10.96
2018-12-31T06:17:02.166Z,11.16
2018-12-31T06:18:03.440Z,11.64
2018-12-31T06:19:03.181Z,11.48
2018-12-31T06:20:03.903Z,10.25
2018-12-31T06:21:03.218Z,10.25
2018-12-31T06:22:04.158Z,9.54
2018-12-31T06:23:03.437Z,9.54
2018-12-31T06:24:03.421Z,10.61
2018-12-31T06:25:02.975Z,10.61
2018-12-31T06:26:03.020Z,9.66
2018-12-31T06:27:02.965Z,10.69
2018-12-31T06:28:03.001Z,9.62
2018-12-31T06:29:02.861Z,9.62
2018-12-31T06:30:03.039Z,9.76
2018-12-31T06:31:03.249Z,9.59
2018-12-31T06:32:03.135Z,10.61
2018-12-31T06:33:02.868Z,10.61
2018-12-31T06:34:02.934Z,9.99
2018-12-31T06:35:02.948Z,10.65
2018-12-31T06:36:03.798Z,9.81
2018-12-31T06:37:03.874Z,9.81
2018-12-31T06:38:03.837Z,10.51
2018-12-31T06:39:02.928Z,9.71
2018-12-31T06:40:01.919Z,10.3
2018-12-31T06:41:02.980Z,10.3
2018-12-31T06:42:05.486Z,9.38
2018-12-31T06:43:03.400Z,10.56
2018-12-31T06:44:03.087Z,9.69
2018-12-31T06:45:03.242Z,10.15
2018-12-31T06:46:03.298Z,10.22
2018-12-31T06:47:03.301Z,10.68
2018-12-31T06:48:03.509Z,10.64
2018-12-31T06:49:03.760Z,10.25
2018-12-31T06:50:02.968Z,11.18
2018-12-31T06:51:03.430Z,11.18
2018-12-31T06:52:03.268Z,10.8
2018-12-31T06:53:03.637Z,10.8
2018-12-31T06:54:03.162Z,10.3
2018-12-31T06:55:02.951Z,10.74
2018-12-31T06:56:03.082Z,10.05
2018-12-31T06:57:03.564Z,10.05
2018-12-31T06:58:03.222Z,10.1
2018-12-31T06:59:02.748Z,10.58
2018-12-31T07:00:03.387Z,10.62
2018-12-31T07:01:03.401Z,10.62
2018-12-31T07:02:02.660Z,12.2
2018-12-31T07:03:02.534Z,10.86
2018-12-31T07:04:02.177Z,10.83
2018-12-31T07:05:03.578Z,10.83
2018-12-31T07:06:03.386Z,9.86
2018-12-31T07:07:03.479Z,12.18
2018-12-31T07:08:03.626Z,10.74
2018-12-31T07:09:03.424Z,10.43
2018-12-31T07:10:02.998Z,10.69
2018-12-31T07:11:02.891Z,10.69
2018-12-31T07:12:03.422Z,11.29
2018-12-31T07:13:03.226Z,9.87
2018-12-31T07:14:03.282Z,11.74
2018-12-31T07:15:03.629Z,11.28
2018-12-31T07:16:03.270Z,11.28
2018-12-31T07:17:04.027Z,10.48
2018-12-31T07:18:02.925Z,11.19
2018-12-31T07:19:02.787Z,12.39
2018-12-31T07:20:03.026Z,13.4
2018-12-31T07:21:03.411Z,13.4
2018-12-31T07:22:03.432Z,12.65
2018-12-31T07:23:02.723Z,10.45
2018-12-31T07:25:03.183Z,11.44
2018-12-31T07:26:02.595Z,11.44
2018-12-31T07:27:06.829Z,11.07
2018-12-31T07:28:02.838Z,12.11
2018-12-31T07:29:03.707Z,11.02
2018-12-31T07:30:02.139Z,11.02
2018-12-31T07:31:02.880Z,10.29
2018-12-31T07:32:03.039Z,10.29
2018-12-31T07:33:02.981Z,12.86
2018-12-31T07:34:03.405Z,13.04
2018-12-31T07:35:03.092Z,14.29
2018-12-31T07:36:03.708Z,14.29
2018-12-31T07:37:03.141Z,11.25
2018-12-31T07:38:03.460Z,11.52
2018-12-31T07:39:03.232Z,11.18
2018-12-31T07:40:03.417Z,11.18
2018-12-31T07:41:03.374Z,10.63
2018-12-31T07:42:03.734Z,10.63
2018-12-31T07:43:02.890Z,10.61
2018-12-31T07:44:03.588Z,11.23
2018-12-31T07:45:03.351Z,11.92
2018-12-31T07:46:03.190Z,11.92
2018-12-31T07:47:03.020Z,12.8
2018-12-31T07:48:02.840Z,12.8
2018-12-31T07:49:03.354Z,11
2018-12-31T07:50:02.106Z,11.96
2018-12-31T07:51:01.814Z,10.31
2018-12-31T07:52:02.658Z,10.52
2018-12-31T07:53:01.546Z,11.16
2018-12-31T07:54:03.629Z,11.16
2018-12-31T07:55:03.303Z,11.39
2018-12-31T07:56:03.332Z,11.65
2018-12-31T07:57:03.456Z,12.4
2018-12-31T07:59:03.952Z,11.38
2018-12-31T08:00:03.311Z,11.38
2018-12-31T08:01:02.868Z,11.75
2018-12-31T08:02:03.110Z,11.75
2018-12-31T08:03:03.505Z,12.12
2018-12-31T08:04:03.313Z,12.12
2018-12-31T08:05:03.533Z,13.1
2018-12-31T08:06:05.461Z,12.46
2018-12-31T08:07:03.205Z,11.54
2018-12-31T08:08:03.735Z,11.54
2018-12-31T08:09:03.016Z,12.49
2018-12-31T08:10:02.995Z,12.49
2018-12-31T08:11:03.500Z,10.92
2018-12-31T08:13:02.945Z,13.03
2018-12-31T08:14:03.740Z,13.03
2018-12-31T08:15:02.998Z,12.24
2018-12-31T08:16:02.807Z,12.24
2018-12-31T08:17:03.598Z,12.43
2018-12-31T08:18:03.805Z,12.43
2018-12-31T08:19:03.230Z,12.88
2018-12-31T08:20:03.287Z,12.88
2018-12-31T08:21:03.391Z,14.49
2018-12-31T08:22:03.239Z,14.11
2018-12-31T08:23:03.220Z,12.76
2018-12-31T08:24:03.108Z,12.76
2018-12-31T08:25:03.503Z,13.9
2018-12-31T08:26:02.961Z,12.79
2018-12-31T08:27:02.909Z,13.29
2018-12-31T08:28:03.577Z,13.29
2018-12-31T08:29:03.097Z,13.82
2018-12-31T08:30:02.681Z,12.81
2018-12-31T08:31:03.549Z,11.95
2018-12-31T08:32:03.157Z,11.88
2018-12-31T08:33:03.366Z,12.62
2018-12-31T08:34:03.680Z,12.35
2018-12-31T08:35:03.714Z,11.75
2018-12-31T08:36:03.052Z,12.95
2018-12-31T08:37:03.019Z,12.95
2018-12-31T08:38:02.980Z,12.36
2018-12-31T08:39:02.776Z,13.34
2018-12-31T08:40:02.968Z,13.31
2018-12-31T08:41:02.363Z,13.46
2018-12-31T08:42:02.188Z,12.12
2018-12-31T08:43:03.533Z,11.83
2018-12-31T08:44:03.895Z,13.28
2018-12-31T08:45:03.654Z,13.28
2018-12-31T08:46:03.755Z,12.13
2018-12-31T08:47:03.157Z,10.84
2018-12-31T08:48:04.104Z,10.84
2018-12-31T08:49:02.853Z,12.97
2018-12-31T08:50:03.570Z,10.38
2018-12-31T08:51:02.949Z,10.38
2018-12-31T08:52:03.354Z,10.1
2018-12-31T08:53:03.279Z,10.1
2018-12-31T08:54:03.195Z,10.64
2018-12-31T08:55:03.514Z,11.73
2018-12-31T08:56:02.986Z,11.18
2018-12-31T08:57:03.454Z,10.97
2018-12-31T08:58:03.553Z,10.97
2018-12-31T08:59:02.895Z,12.04
2018-12-31T09:00:02.785Z,16.47
2018-12-31T09:01:03.011Z,19.46
2018-12-31T09:02:03.272Z,17.46
2018-12-31T09:03:02.882Z,17.46
2018-12-31T09:04:02.598Z,15.38
2018-12-31T09:05:03.861Z,13.33
2018-12-31T09:06:03.629Z,15.56
2018-12-31T09:07:02.723Z,15.56
2018-12-31T09:08:03.464Z,14.46
2018-12-31T09:09:03.615Z,12.55
2018-12-31T09:10:03.195Z,9.51
2018-12-31T09:11:02.803Z,9.51
2018-12-31T09:12:03.193Z,8.98
2018-12-31T09:13:03.299Z,8.58
2018-12-31T09:14:03.084Z,8.58
2018-12-31T09:15:03.892Z,8.39
2018-12-31T09:16:03.061Z,8.79
2018-12-31T09:17:03.446Z,8.79
2018-12-31T09:18:03.037Z,7.4
2018-12-31T09:19:03.573Z,8.2
2018-12-31T09:20:03.452Z,8.2
2018-12-31T09:21:02.981Z,7.64
2018-12-31T09:22:03.111Z,7.24
2018-12-31T09:23:02.943Z,7.69
2018-12-31T09:24:02.785Z,7.69
2018-12-31T09:25:03.457Z,6.77
2018-12-31T09:26:03.009Z,7.63
2018-12-31T09:27:02.788Z,7.35
2018-12-31T09:28:02.132Z,7.09
2018-12-31T09:29:02.147Z,5.7
2018-12-31T09:30:03.594Z,7.34
2018-12-31T09:31:01.946Z,11.99
2018-12-31T09:32:03.170Z,15.39
2018-12-31T09:33:02.848Z,12.54
2018-12-31T09:34:02.464Z,11.49
2018-12-31T09:35:03.670Z,11.6
2018-12-31T09:36:02.932Z,11.34
2018-12-31T09:37:03.149Z,14.76
2018-12-31T09:38:03.839Z,14.76
2018-12-31T09:39:03.301Z,14.32
2018-12-31T09:40:03.758Z,12.55
2018-12-31T09:41:03.580Z,11.87
2018-12-31T09:42:03.143Z,11.87
2018-12-31T09:43:03.069Z,13.72
2018-12-31T09:44:03.479Z,12.85
2018-12-31T09:45:02.979Z,12.28
2018-12-31T09:46:03.293Z,12.28
2018-12-31T09:47:03.502Z,11.25
2018-12-31T09:48:03.256Z,11.25
2018-12-31T09:49:03.402Z,13.96
2018-12-31T09:50:02.667Z,10.38
2018-12-31T09:51:02.636Z,10.54
2018-12-31T09:52:01.883Z,9.74
2018-12-31T09:53:03.081Z,9.74
2018-12-31T09:54:02.847Z,8.95
2018-12-31T09:55:03.978Z,8.95
2018-12-31T09:56:02.708Z,9.23
2018-12-31T09:57:02.886Z,8.26
2018-12-31T09:58:03.589Z,9.54
2018-12-31T09:59:02.881Z,9.19
2018-12-31T10:00:03.000Z,9.13
2018-12-31T10:01:02.840Z,9.2
2018-12-31T10:02:03.001Z,9.2
2018-12-31T10:03:03.675Z,9.75
2018-12-31T10:04:03.230Z,10.31
2018-12-31T10:05:06.736Z,11.11
2018-12-31T10:06:03.074Z,11.11
2018-12-31T10:07:03.783Z,10.68
2018-12-31T10:08:03.668Z,10.68
2018-12-31T10:09:03.042Z,10.77
2018-12-31T10:10:03.201Z,10.24
2018-12-31T10:11:03.008Z,15.2
2018-12-31T10:12:03.703Z,15.2
2018-12-31T10:13:03.553Z,10.55
2018-12-31T10:14:03.824Z,11.02
2018-12-31T10:15:01.930Z,9.81
2018-12-31T10:16:03.039Z,9.88
2018-12-31T10:17:03.614Z,10.21
2018-12-31T10:19:03.302Z,9.38
2018-12-31T10:20:02.994Z,9.38
2018-12-31T10:21:03.462Z,9.72
2018-12-31T10:22:03.366Z,9
2018-12-31T10:23:03.083Z,11.23
2018-12-31T10:24:03.792Z,9.59
2018-12-31T10:25:03.677Z,9.57
2018-12-31T10:26:03.093Z,9
2018-12-31T10:27:03.683Z,14.72
2018-12-31T10:28:03.962Z,14.72
2018-12-31T10:29:03.675Z,12.68
2018-12-31T10:30:03.351Z,12.68
2018-12-31T10:31:02.886Z,10.22
2018-12-31T10:32:03.418Z,10.22
2018-12-31T10:33:02.792Z,11.81
2018-12-31T10:34:03.688Z,14.19
2018-12-31T10:35:03.600Z,18.14
2018-12-31T10:36:03.465Z,18.14
2018-12-31T10:37:03.000Z,16.21
2018-12-31T10:38:03.185Z,14.11
2018-12-31T10:39:06.450Z,11.86
2018-12-31T10:40:03.525Z,11.86
2018-12-31T10:41:03.435Z,10.53
2018-12-31T10:42:03.125Z,10.53
2018-12-31T10:43:02.031Z,10
2018-12-31T10:44:03.025Z,10
2018-12-31T10:45:04.400Z,10.84
2018-12-31T10:46:03.530Z,11.19
2018-12-31T10:47:03.251Z,11.19
2018-12-31T10:48:03.625Z,10.46
2018-12-31T10:49:03.525Z,10.16
2018-12-31T10:50:03.244Z,10.34
2018-12-31T10:51:03.720Z,10.34
2018-12-31T10:52:03.613Z,10.13
2018-12-31T10:53:06.250Z,12.12
2018-12-31T10:54:02.781Z,12.12
2018-12-31T10:55:04.075Z,12.26
2018-12-31T10:56:03.237Z,11.51
2018-12-31T10:57:03.081Z,11.29
2018-12-31T10:58:03.453Z,11.29
2018-12-31T10:59:02.911Z,12.01
2018-12-31T11:00:03.183Z,10.56
2018-12-31T11:01:03.282Z,11.22
2018-12-31T11:02:03.567Z,11.62
2018-12-31T11:03:03.245Z,10.82
2018-12-31T11:04:03.288Z,9.94
2018-12-31T11:05:03.063Z,10.15
2018-12-31T11:06:02.148Z,10.56
2018-12-31T11:07:02.385Z,11.3
2018-12-31T11:08:02.977Z,11.3
2018-12-31T11:09:02.654Z,12.13
2018-12-31T11:10:03.096Z,12.53
2018-12-31T11:11:03.818Z,12.53
2018-12-31T11:12:03.762Z,11.53
2018-12-31T11:13:02.240Z,10.04
2018-12-31T11:14:03.737Z,10.04
2018-12-31T11:15:03.409Z,11.68
2018-12-31T11:16:03.554Z,11.05
2018-12-31T11:17:03.667Z,12.05
2018-12-31T11:18:03.069Z,12.01
2018-12-31T11:19:03.802Z,12.01
2018-12-31T11:20:02.937Z,11.39
2018-12-31T11:21:03.500Z,12.08
2018-12-31T11:22:04.807Z,12.08
2018-12-31T11:23:02.834Z,10.76
2018-12-31T11:24:03.788Z,12.75
2018-12-31T11:25:03.001Z,13.96
2018-12-31T11:26:03.618Z,16.71
2018-12-31T11:27:03.480Z,13.26
2018-12-31T11:28:03.672Z,15.17
2018-12-31T11:29:03.316Z,20.36
2018-12-31T11:30:03.693Z,20.36
2018-12-31T11:31:02.652Z,29.34
2018-12-31T11:32:03.847Z,31.14
2018-12-31T11:33:03.617Z,31.14
2018-12-31T11:34:02.221Z,12.77
2018-12-31T11:35:02.485Z,12.77
2018-12-31T11:36:03.012Z,11.16
2018-12-31T11:37:03.299Z,11.16
2018-12-31T11:38:03.568Z,10.91
2018-12-31T11:39:03.056Z,10.91
2018-12-31T11:40:02.721Z,26.74
2018-12-31T11:41:03.586Z,26.74
2018-12-31T11:42:15.675Z,12.8
2018-12-31T11:43:03.753Z,12.8
2018-12-31T11:44:03.354Z,14.09
2018-12-31T11:45:03.162Z,14.09
2018-12-31T11:46:03.149Z,10.06
2018-12-31T11:47:03.784Z,10.06
2018-12-31T11:48:03.576Z,8.39
2018-12-31T11:49:03.325Z,8.39
2018-12-31T11:50:03.124Z,8.81
2018-12-31T11:51:03.245Z,8.49
2018-12-31T11:52:03.096Z,8.39
2018-12-31T11:53:03.206Z,8.39
2018-12-31T11:54:03.231Z,7.82
2018-12-31T11:56:02.838Z,7.44
2018-12-31T11:57:03.036Z,7.32
2018-12-31T11:58:02.284Z,7.62
2018-12-31T11:59:02.545Z,6.56
2018-12-31T12:00:02.268Z,6.8
2018-12-31T12:01:03.886Z,7.29
2018-12-31T12:02:03.613Z,6.54
2018-12-31T12:03:01.835Z,7.09
2018-12-31T12:04:01.883Z,7.21
2018-12-31T12:05:04.298Z,6.45
2018-12-31T12:06:02.859Z,6.45
2018-12-31T12:07:03.595Z,6.76
2018-12-31T12:08:03.267Z,8.62
2018-12-31T12:09:03.647Z,8.75
2018-12-31T12:10:03.007Z,8.75
2018-12-31T12:11:03.916Z,7.19
2018-12-31T12:12:03.725Z,7.19
2018-12-31T12:13:03.502Z,7.21
2018-12-31T12:14:03.582Z,9.38
2018-12-31T12:15:03.513Z,10.01
2018-12-31T12:16:03.398Z,0
2018-12-31T12:17:02.802Z,8.11
2018-12-31T12:18:03.537Z,8.11
2018-12-31T12:19:03.063Z,0
2018-12-31T12:20:03.285Z,0
2018-12-31T12:21:02.092Z,0
2018-12-31T12:22:03.075Z,6.86
2018-12-31T12:23:03.353Z,6.44
2018-12-31T12:24:03.531Z,6.44
2018-12-31T12:26:03.799Z,0
2018-12-31T12:27:02.884Z,0
2018-12-31T12:28:03.002Z,0
2018-12-31T12:29:03.242Z,0
2018-12-31T12:30:03.734Z,0
2018-12-31T12:31:03.826Z,0
2018-12-31T12:32:03.213Z,0
2018-12-31T12:33:03.162Z,0
2018-12-31T12:34:03.366Z,0
2018-12-31T12:35:04.012Z,0
2018-12-31T12:36:03.690Z,0
2018-12-31T12:37:03.756Z,7.29
2018-12-31T12:38:03.403Z,7.29
2018-12-31T12:39:03.221Z,5.78
2018-12-31T12:40:03.266Z,5.78
2018-12-31T12:41:04.033Z,7.3
2018-12-31T12:42:04.646Z,6.65
2018-12-31T12:43:03.577Z,7.08
2018-12-31T12:44:03.664Z,6.34
2018-12-31T12:45:03.634Z,7.38
2018-12-31T12:46:03.228Z,6.44
2018-12-31T12:48:04.244Z,6.31
2018-12-31T12:49:03.274Z,6.46
2018-12-31T12:50:03.711Z,6.45
2018-12-31T12:51:04.639Z,6.45
2018-12-31T12:52:03.593Z,6.6
2018-12-31T12:53:03.606Z,7.12
2018-12-31T12:54:03.518Z,6.8
2018-12-31T12:55:03.429Z,9.29
2018-12-31T12:56:03.600Z,25.84
2018-12-31T12:57:03.347Z,20.14
2018-12-31T12:58:03.619Z,18.53
2018-12-31T12:59:01.769Z,14
2018-12-31T13:00:03.605Z,8.83
2018-12-31T13:01:03.279Z,8.68
2018-12-31T13:02:02.458Z,10.55
2018-12-31T13:03:03.114Z,9.89
2018-12-31T13:04:03.889Z,8.88
2018-12-31T13:05:04.236Z,8.88
2018-12-31T13:06:03.559Z,7.29
2018-12-31T13:07:03.054Z,7.15
2018-12-31T13:08:03.814Z,7.68
2018-12-31T13:09:02.781Z,7.68
2018-12-31T13:10:03.198Z,9.18
2018-12-31T13:11:02.824Z,9.18
2018-12-31T13:12:03.689Z,9.56
2018-12-31T13:13:03.391Z,8.55
2018-12-31T13:14:02.848Z,8.14
2018-12-31T13:15:02.470Z,7.38
2018-12-31T13:16:02.735Z,7.38
2018-12-31T13:17:02.450Z,7.29
2018-12-31T13:18:03.920Z,7.56
2018-12-31T13:19:03.584Z,7.56
2018-12-31T13:20:03.804Z,7.12
2018-12-31T13:21:03.531Z,7.76